sensor_id;sensor_type;location;lat;lon;timestamp;P1;durP1;ratioP1;P2;durP2;ratioP2
5022;SDS011;2530;47.990;7.866;2022-12-11T00:01:58;16.23;;;12.10;;
5022;SDS011;2530;47.990;7.866;2022-12-11T00:04:23;16.00;;;12.40;;
5022;SDS011;2530;47.990;7.866;2022-12-11T00:06:49;15.25;;;12.00;;
5022;SDS011;2530;47.990;7.866;2022-12-11T00:09:16;16.92;;;12.80;;
5022;SDS011;2530;47.990;7.866;2022-12-11T00:11:43;15.88;;;12.68;;
5022;SDS011;2530;47.990;7.866;2022-12-11T00:14:08;17.63;;;13.20;;
5022;SDS011;2530;47.990;7.866;2022-12-11T00:16:37;20.20;;;13.43;;
5022;SDS011;2530;47.990;7.866;2022-12-11T00:19:03;15.85;;;11.85;;
5022;SDS011;2530;47.990;7.866;2022-12-11T00:21:28;15.43;;;12.23;;
5022;SDS011;2530;47.990;7.866;2022-12-11T00:23:54;17.70;;;12.90;;
5022;SDS011;2530;47.990;7.866;2022-12-11T00:26:19;16.77;;;12.87;;
5022;SDS011;2530;47.990;7.866;2022-12-11T00:28:45;17.60;;;12.20;;
5022;SDS011;2530;47.990;7.866;2022-12-11T00:31:15;15.18;;;11.10;;
5022;SDS011;2530;47.990;7.866;2022-12-11T00:33:42;17.52;;;12.60;;
5022;SDS011;2530;47.990;7.866;2022-12-11T00:36:13;16.08;;;11.48;;
5022;SDS011;2530;47.990;7.866;2022-12-11T00:38:40;14.48;;;11.27;;
5022;SDS011;2530;47.990;7.866;2022-12-11T00:41:07;14.35;;;11.30;;
5022;SDS011;2530;47.990;7.866;2022-12-11T00:43:33;13.38;;;10.77;;
5022;SDS011;2530;47.990;7.866;2022-12-11T00:45:59;13.70;;;10.88;;
5022;SDS011;2530;47.990;7.866;2022-12-11T00:48:25;12.60;;;10.47;;
5022;SDS011;2530;47.990;7.866;2022-12-11T00:50:50;13.73;;;10.45;;
5022;SDS011;2530;47.990;7.866;2022-12-11T00:53:17;12.77;;;10.52;;
5022;SDS011;2530;47.990;7.866;2022-12-11T00:55:43;15.73;;;12.07;;
5022;SDS011;2530;47.990;7.866;2022-12-11T00:58:09;15.80;;;11.55;;
5022;SDS011;2530;47.990;7.866;2022-12-11T01:00:35;12.60;;;10.30;;
5022;SDS011;2530;47.990;7.866;2022-12-11T01:03:01;12.25;;;10.05;;
5022;SDS011;2530;47.990;7.866;2022-12-11T01:05:27;12.70;;;10.10;;
5022;SDS011;2530;47.990;7.866;2022-12-11T01:07:53;13.38;;;10.90;;
5022;SDS011;2530;47.990;7.866;2022-12-11T01:10:18;13.75;;;10.85;;
5022;SDS011;2530;47.990;7.866;2022-12-11T01:12:51;14.35;;;10.75;;
5022;SDS011;2530;47.990;7.866;2022-12-11T01:15:38;12.45;;;10.15;;
5022;SDS011;2530;47.990;7.866;2022-12-11T01:18:08;14.20;;;10.98;;
5022;SDS011;2530;47.990;7.866;2022-12-11T01:20:36;13.52;;;10.35;;
5022;SDS011;2530;47.990;7.866;2022-12-11T01:23:04;13.97;;;10.60;;
5022;SDS011;2530;47.990;7.866;2022-12-11T01:25:30;13.65;;;10.70;;
5022;SDS011;2530;47.990;7.866;2022-12-11T01:27:57;13.15;;;10.80;;
5022;SDS011;2530;47.990;7.866;2022-12-11T01:30:24;14.80;;;11.18;;
5022;SDS011;2530;47.990;7.866;2022-12-11T01:32:50;12.93;;;9.73;;
5022;SDS011;2530;47.990;7.866;2022-12-11T01:35:16;12.63;;;10.53;;
5022;SDS011;2530;47.990;7.866;2022-12-11T01:37:43;13.68;;;10.40;;
5022;SDS011;2530;47.990;7.866;2022-12-11T01:40:10;12.85;;;9.80;;
5022;SDS011;2530;47.990;7.866;2022-12-11T01:42:38;11.70;;;9.45;;
5022;SDS011;2530;47.990;7.866;2022-12-11T01:47:51;10.48;;;8.55;;
5022;SDS011;2530;47.990;7.866;2022-12-11T01:50:25;11.50;;;9.10;;
5022;SDS011;2530;47.990;7.866;2022-12-11T01:52:51;10.95;;;8.40;;
5022;SDS011;2530;47.990;7.866;2022-12-11T01:55:17;10.15;;;8.25;;
5022;SDS011;2530;47.990;7.866;2022-12-11T01:57:44;11.30;;;9.40;;
5022;SDS011;2530;47.990;7.866;2022-12-11T02:00:13;9.50;;;8.02;;
5022;SDS011;2530;47.990;7.866;2022-12-11T02:02:39;11.27;;;8.00;;
5022;SDS011;2530;47.990;7.866;2022-12-11T02:05:05;11.35;;;9.02;;
5022;SDS011;2530;47.990;7.866;2022-12-11T02:07:34;11.52;;;8.60;;
5022;SDS011;2530;47.990;7.866;2022-12-11T02:10:04;10.23;;;8.45;;
5022;SDS011;2530;47.990;7.866;2022-12-11T02:15:25;10.57;;;8.30;;
5022;SDS011;2530;47.990;7.866;2022-12-11T02:21:11;10.65;;;9.10;;
5022;SDS011;2530;47.990;7.866;2022-12-11T02:23:45;10.20;;;8.82;;
5022;SDS011;2530;47.990;7.866;2022-12-11T02:29:15;13.20;;;9.52;;
5022;SDS011;2530;47.990;7.866;2022-12-11T02:31:46;12.75;;;9.43;;
5022;SDS011;2530;47.990;7.866;2022-12-11T02:34:24;9.45;;;7.82;;
5022;SDS011;2530;47.990;7.866;2022-12-11T02:37:04;12.15;;;9.10;;
5022;SDS011;2530;47.990;7.866;2022-12-11T02:39:38;10.52;;;8.82;;
5022;SDS011;2530;47.990;7.866;2022-12-11T02:42:07;9.95;;;8.52;;
5022;SDS011;2530;47.990;7.866;2022-12-11T02:44:35;11.23;;;8.70;;
5022;SDS011;2530;47.990;7.866;2022-12-11T02:47:02;11.45;;;8.63;;
5022;SDS011;2530;47.990;7.866;2022-12-11T02:49:29;8.80;;;7.90;;
5022;SDS011;2530;47.990;7.866;2022-12-11T02:51:57;10.38;;;8.40;;
5022;SDS011;2530;47.990;7.866;2022-12-11T02:54:27;10.90;;;7.93;;
5022;SDS011;2530;47.990;7.866;2022-12-11T02:57:09;10.13;;;9.02;;
5022;SDS011;2530;47.990;7.866;2022-12-11T02:59:39;9.52;;;8.52;;
5022;SDS011;2530;47.990;7.866;2022-12-11T03:02:07;11.48;;;8.10;;
5022;SDS011;2530;47.990;7.866;2022-12-11T03:04:34;9.10;;;7.65;;
5022;SDS011;2530;47.990;7.866;2022-12-11T03:07:02;9.38;;;8.02;;
5022;SDS011;2530;47.990;7.866;2022-12-11T03:09:36;10.18;;;7.88;;
5022;SDS011;2530;47.990;7.866;2022-12-11T03:12:06;8.63;;;7.70;;
5022;SDS011;2530;47.990;7.866;2022-12-11T03:14:36;9.48;;;8.00;;
5022;SDS011;2530;47.990;7.866;2022-12-11T03:17:04;9.97;;;8.20;;
5022;SDS011;2530;47.990;7.866;2022-12-11T03:19:41;9.13;;;8.20;;
5022;SDS011;2530;47.990;7.866;2022-12-11T03:22:30;9.57;;;7.80;;
5022;SDS011;2530;47.990;7.866;2022-12-11T03:25:04;9.82;;;8.60;;
5022;SDS011;2530;47.990;7.866;2022-12-11T03:30:28;9.93;;;8.27;;
5022;SDS011;2530;47.990;7.866;2022-12-11T03:33:05;10.95;;;8.52;;
5022;SDS011;2530;47.990;7.866;2022-12-11T03:35:47;10.90;;;8.20;;
5022;SDS011;2530;47.990;7.866;2022-12-11T03:38:20;9.80;;;8.80;;
5022;SDS011;2530;47.990;7.866;2022-12-11T03:40:49;10.50;;;8.38;;
5022;SDS011;2530;47.990;7.866;2022-12-11T03:43:18;10.75;;;8.18;;
5022;SDS011;2530;47.990;7.866;2022-12-11T03:45:45;10.00;;;8.57;;
5022;SDS011;2530;47.990;7.866;2022-12-11T03:48:12;9.63;;;8.48;;
5022;SDS011;2530;47.990;7.866;2022-12-11T03:50:39;11.02;;;9.05;;
5022;SDS011;2530;47.990;7.866;2022-12-11T03:53:06;12.00;;;9.20;;
5022;SDS011;2530;47.990;7.866;2022-12-11T03:55:32;11.20;;;9.70;;
5022;SDS011;2530;47.990;7.866;2022-12-11T03:58:01;10.50;;;8.60;;
5022;SDS011;2530;47.990;7.866;2022-12-11T04:00:27;10.98;;;9.18;;
5022;SDS011;2530;47.990;7.866;2022-12-11T04:02:53;9.57;;;8.43;;
5022;SDS011;2530;47.990;7.866;2022-12-11T04:05:37;10.50;;;9.20;;
5022;SDS011;2530;47.990;7.866;2022-12-11T04:08:07;11.75;;;8.65;;
5022;SDS011;2530;47.990;7.866;2022-12-11T04:10:32;11.20;;;8.90;;
5022;SDS011;2530;47.990;7.866;2022-12-11T04:12:58;10.23;;;8.70;;
5022;SDS011;2530;47.990;7.866;2022-12-11T04:15:23;10.37;;;8.77;;
5022;SDS011;2530;47.990;7.866;2022-12-11T04:17:49;9.93;;;8.40;;
5022;SDS011;2530;47.990;7.866;2022-12-11T04:20:33;10.30;;;9.10;;
5022;SDS011;2530;47.990;7.866;2022-12-11T04:23:17;10.25;;;8.60;;
5022;SDS011;2530;47.990;7.866;2022-12-11T04:26:06;11.40;;;8.65;;
5022;SDS011;2530;47.990;7.866;2022-12-11T04:28:36;10.02;;;8.50;;
5022;SDS011;2530;47.990;7.866;2022-12-11T04:31:03;11.00;;;7.47;;
5022;SDS011;2530;47.990;7.866;2022-12-11T04:33:29;10.57;;;8.07;;
5022;SDS011;2530;47.990;7.866;2022-12-11T04:35:57;9.60;;;8.40;;
5022;SDS011;2530;47.990;7.866;2022-12-11T04:38:24;8.63;;;7.68;;
5022;SDS011;2530;47.990;7.866;2022-12-11T04:40:57;9.68;;;7.53;;
5022;SDS011;2530;47.990;7.866;2022-12-11T04:43:24;8.90;;;8.00;;
5022;SDS011;2530;47.990;7.866;2022-12-11T04:45:49;12.50;;;8.40;;
5022;SDS011;2530;47.990;7.866;2022-12-11T04:48:15;8.90;;;7.60;;
5022;SDS011;2530;47.990;7.866;2022-12-11T04:50:40;10.83;;;8.70;;
5022;SDS011;2530;47.990;7.866;2022-12-11T04:53:06;10.00;;;8.40;;
5022;SDS011;2530;47.990;7.866;2022-12-11T04:55:31;9.47;;;8.20;;
5022;SDS011;2530;47.990;7.866;2022-12-11T04:57:57;11.33;;;8.27;;
5022;SDS011;2530;47.990;7.866;2022-12-11T05:00:22;9.37;;;7.73;;
5022;SDS011;2530;47.990;7.866;2022-12-11T05:02:48;9.27;;;7.97;;
5022;SDS011;2530;47.990;7.866;2022-12-11T05:05:13;9.37;;;8.17;;
5022;SDS011;2530;47.990;7.866;2022-12-11T05:07:39;9.57;;;8.10;;
5022;SDS011;2530;47.990;7.866;2022-12-11T05:10:05;10.33;;;7.73;;
5022;SDS011;2530;47.990;7.866;2022-12-11T05:12:31;8.85;;;7.95;;
5022;SDS011;2530;47.990;7.866;2022-12-11T05:14:57;9.95;;;8.60;;
5022;SDS011;2530;47.990;7.866;2022-12-11T05:17:22;9.95;;;8.40;;
5022;SDS011;2530;47.990;7.866;2022-12-11T05:19:48;10.35;;;8.15;;
5022;SDS011;2530;47.990;7.866;2022-12-11T05:22:15;11.30;;;8.68;;
5022;SDS011;2530;47.990;7.866;2022-12-11T05:24:41;10.27;;;8.48;;
5022;SDS011;2530;47.990;7.866;2022-12-11T05:27:07;11.82;;;8.30;;
5022;SDS011;2530;47.990;7.866;2022-12-11T05:29:34;10.75;;;8.68;;
5022;SDS011;2530;47.990;7.866;2022-12-11T05:31:59;10.73;;;9.00;;
5022;SDS011;2530;47.990;7.866;2022-12-11T05:34:25;10.77;;;9.00;;
5022;SDS011;2530;47.990;7.866;2022-12-11T05:36:50;11.35;;;9.23;;
5022;SDS011;2530;47.990;7.866;2022-12-11T05:39:16;11.57;;;9.93;;
5022;SDS011;2530;47.990;7.866;2022-12-11T05:41:41;10.60;;;8.77;;
5022;SDS011;2530;47.990;7.866;2022-12-11T05:44:09;12.97;;;9.13;;
5022;SDS011;2530;47.990;7.866;2022-12-11T05:46:36;11.60;;;9.30;;
5022;SDS011;2530;47.990;7.866;2022-12-11T05:49:02;13.07;;;9.10;;
5022;SDS011;2530;47.990;7.866;2022-12-11T05:51:28;12.95;;;9.68;;
5022;SDS011;2530;47.990;7.866;2022-12-11T05:53:54;11.98;;;9.05;;
5022;SDS011;2530;47.990;7.866;2022-12-11T05:56:24;13.48;;;8.93;;
5022;SDS011;2530;47.990;7.866;2022-12-11T05:58:55;12.30;;;10.07;;
5022;SDS011;2530;47.990;7.866;2022-12-11T06:01:23;12.20;;;9.20;;
5022;SDS011;2530;47.990;7.866;2022-12-11T06:03:50;11.77;;;9.50;;
5022;SDS011;2530;47.990;7.866;2022-12-11T06:06:17;11.55;;;9.48;;
5022;SDS011;2530;47.990;7.866;2022-12-11T06:08:42;10.70;;;8.80;;
5022;SDS011;2530;47.990;7.866;2022-12-11T06:11:10;11.27;;;8.73;;
5022;SDS011;2530;47.990;7.866;2022-12-11T06:13:37;11.43;;;8.73;;
5022;SDS011;2530;47.990;7.866;2022-12-11T06:16:03;9.88;;;8.57;;
5022;SDS011;2530;47.990;7.866;2022-12-11T06:18:30;11.10;;;9.23;;
5022;SDS011;2530;47.990;7.866;2022-12-11T06:20:56;10.10;;;8.50;;
5022;SDS011;2530;47.990;7.866;2022-12-11T06:23:22;11.00;;;9.53;;
5022;SDS011;2530;47.990;7.866;2022-12-11T06:25:48;13.00;;;9.63;;
5022;SDS011;2530;47.990;7.866;2022-12-11T06:28:13;11.23;;;8.83;;
5022;SDS011;2530;47.990;7.866;2022-12-11T06:30:39;10.83;;;9.00;;
5022;SDS011;2530;47.990;7.866;2022-12-11T06:33:04;10.27;;;8.27;;
5022;SDS011;2530;47.990;7.866;2022-12-11T06:35:30;9.97;;;8.53;;
5022;SDS011;2530;47.990;7.866;2022-12-11T06:37:56;11.13;;;8.50;;
5022;SDS011;2530;47.990;7.866;2022-12-11T06:40:21;12.30;;;9.00;;
5022;SDS011;2530;47.990;7.866;2022-12-11T06:42:47;11.50;;;9.20;;
5022;SDS011;2530;47.990;7.866;2022-12-11T06:45:12;12.83;;;9.30;;
5022;SDS011;2530;47.990;7.866;2022-12-11T06:47:38;11.87;;;9.97;;
5022;SDS011;2530;47.990;7.866;2022-12-11T06:50:03;11.50;;;9.10;;
5022;SDS011;2530;47.990;7.866;2022-12-11T06:52:29;11.88;;;9.45;;
5022;SDS011;2530;47.990;7.866;2022-12-11T06:54:55;11.45;;;9.32;;
5022;SDS011;2530;47.990;7.866;2022-12-11T06:57:21;14.45;;;10.50;;
5022;SDS011;2530;47.990;7.866;2022-12-11T06:59:47;10.98;;;8.80;;
5022;SDS011;2530;47.990;7.866;2022-12-11T07:02:13;12.53;;;8.80;;
5022;SDS011;2530;47.990;7.866;2022-12-11T07:04:40;10.82;;;8.88;;
5022;SDS011;2530;47.990;7.866;2022-12-11T07:07:06;10.50;;;9.05;;
5022;SDS011;2530;47.990;7.866;2022-12-11T07:09:33;11.05;;;8.73;;
5022;SDS011;2530;47.990;7.866;2022-12-11T07:12:00;11.88;;;9.40;;
5022;SDS011;2530;47.990;7.866;2022-12-11T07:14:27;12.02;;;8.85;;
5022;SDS011;2530;47.990;7.866;2022-12-11T07:16:54;10.57;;;8.50;;
5022;SDS011;2530;47.990;7.866;2022-12-11T07:19:20;10.57;;;8.50;;
5022;SDS011;2530;47.990;7.866;2022-12-11T07:21:45;10.73;;;8.80;;
5022;SDS011;2530;47.990;7.866;2022-12-11T07:24:11;9.80;;;8.25;;
5022;SDS011;2530;47.990;7.866;2022-12-11T07:26:36;11.38;;;8.93;;
5022;SDS011;2530;47.990;7.866;2022-12-11T07:29:02;11.63;;;8.60;;
5022;SDS011;2530;47.990;7.866;2022-12-11T07:31:28;11.98;;;8.93;;
5022;SDS011;2530;47.990;7.866;2022-12-11T07:33:55;11.90;;;9.20;;
5022;SDS011;2530;47.990;7.866;2022-12-11T07:36:22;11.85;;;9.18;;
5022;SDS011;2530;47.990;7.866;2022-12-11T07:38:48;10.73;;;8.82;;
5022;SDS011;2530;47.990;7.866;2022-12-11T07:41:14;12.63;;;9.27;;
5022;SDS011;2530;47.990;7.866;2022-12-11T07:43:40;13.10;;;9.15;;
5022;SDS011;2530;47.990;7.866;2022-12-11T07:46:07;10.40;;;8.65;;
5022;SDS011;2530;47.990;7.866;2022-12-11T07:48:38;11.32;;;8.90;;
5022;SDS011;2530;47.990;7.866;2022-12-11T07:53:34;12.07;;;8.98;;
5022;SDS011;2530;47.990;7.866;2022-12-11T07:56:00;14.57;;;11.02;;
5022;SDS011;2530;47.990;7.866;2022-12-11T07:58:26;12.63;;;10.43;;
5022;SDS011;2530;47.990;7.866;2022-12-11T08:00:52;13.70;;;11.10;;
5022;SDS011;2530;47.990;7.866;2022-12-11T08:03:17;15.43;;;11.13;;
5022;SDS011;2530;47.990;7.866;2022-12-11T08:05:49;15.43;;;11.40;;
5022;SDS011;2530;47.990;7.866;2022-12-11T08:08:16;14.63;;;10.50;;
5022;SDS011;2530;47.990;7.866;2022-12-11T08:10:42;16.33;;;11.90;;
5022;SDS011;2530;47.990;7.866;2022-12-11T08:13:07;14.77;;;11.00;;
5022;SDS011;2530;47.990;7.866;2022-12-11T08:15:34;14.75;;;11.10;;
5022;SDS011;2530;47.990;7.866;2022-12-11T08:17:59;15.07;;;12.10;;
5022;SDS011;2530;47.990;7.866;2022-12-11T08:20:25;15.33;;;11.13;;
5022;SDS011;2530;47.990;7.866;2022-12-11T08:22:50;15.10;;;11.50;;
5022;SDS011;2530;47.990;7.866;2022-12-11T08:25:16;18.70;;;12.70;;
5022;SDS011;2530;47.990;7.866;2022-12-11T08:27:41;15.67;;;12.30;;
5022;SDS011;2530;47.990;7.866;2022-12-11T08:30:07;15.83;;;11.70;;
5022;SDS011;2530;47.990;7.866;2022-12-11T08:32:34;17.00;;;12.38;;
5022;SDS011;2530;47.990;7.866;2022-12-11T08:34:59;15.37;;;11.97;;
5022;SDS011;2530;47.990;7.866;2022-12-11T08:37:25;15.02;;;11.75;;
5022;SDS011;2530;47.990;7.866;2022-12-11T08:39:51;14.27;;;11.57;;
5022;SDS011;2530;47.990;7.866;2022-12-11T08:42:16;14.80;;;12.10;;
5022;SDS011;2530;47.990;7.866;2022-12-11T08:44:42;14.07;;;11.40;;
5022;SDS011;2530;47.990;7.866;2022-12-11T08:47:07;15.37;;;12.77;;
5022;SDS011;2530;47.990;7.866;2022-12-11T08:49:34;15.68;;;11.65;;
5022;SDS011;2530;47.990;7.866;2022-12-11T08:52:00;14.13;;;10.38;;
5022;SDS011;2530;47.990;7.866;2022-12-11T08:54:27;13.95;;;11.10;;
5022;SDS011;2530;47.990;7.866;2022-12-11T08:56:52;16.30;;;12.27;;
5022;SDS011;2530;47.990;7.866;2022-12-11T08:59:18;13.63;;;10.67;;
5022;SDS011;2530;47.990;7.866;2022-12-11T09:01:43;15.53;;;11.73;;
5022;SDS011;2530;47.990;7.866;2022-12-11T09:04:09;16.27;;;11.75;;
5022;SDS011;2530;47.990;7.866;2022-12-11T09:06:34;17.30;;;12.32;;
5022;SDS011;2530;47.990;7.866;2022-12-11T09:09:00;18.38;;;12.75;;
5022;SDS011;2530;47.990;7.866;2022-12-11T09:11:27;15.63;;;12.70;;
5022;SDS011;2530;47.990;7.866;2022-12-11T09:13:54;15.23;;;10.98;;
5022;SDS011;2530;47.990;7.866;2022-12-11T09:16:21;14.07;;;10.50;;
5022;SDS011;2530;47.990;7.866;2022-12-11T09:18:49;13.75;;;10.82;;
5022;SDS011;2530;47.990;7.866;2022-12-11T09:21:17;15.43;;;10.32;;
5022;SDS011;2530;47.990;7.866;2022-12-11T09:23:44;14.57;;;11.50;;
5022;SDS011;2530;47.990;7.866;2022-12-11T09:26:11;14.00;;;10.80;;
5022;SDS011;2530;47.990;7.866;2022-12-11T09:28:39;14.90;;;10.82;;
5022;SDS011;2530;47.990;7.866;2022-12-11T09:31:09;16.23;;;12.55;;
5022;SDS011;2530;47.990;7.866;2022-12-11T09:33:36;15.57;;;12.85;;
5022;SDS011;2530;47.990;7.866;2022-12-11T09:36:02;15.20;;;12.77;;
5022;SDS011;2530;47.990;7.866;2022-12-11T09:38:29;16.58;;;13.32;;
5022;SDS011;2530;47.990;7.866;2022-12-11T09:40:55;16.95;;;12.50;;
5022;SDS011;2530;47.990;7.866;2022-12-11T09:43:30;16.30;;;12.57;;
5022;SDS011;2530;47.990;7.866;2022-12-11T09:46:08;16.67;;;10.68;;
5022;SDS011;2530;47.990;7.866;2022-12-11T09:48:35;12.35;;;10.05;;
5022;SDS011;2530;47.990;7.866;2022-12-11T09:51:05;13.57;;;10.57;;
5022;SDS011;2530;47.990;7.866;2022-12-11T09:53:42;14.07;;;10.93;;
5022;SDS011;2530;47.990;7.866;2022-12-11T10:06:45;14.43;;;11.03;;
5022;SDS011;2530;47.990;7.866;2022-12-11T10:17:19;13.03;;;9.80;;
5022;SDS011;2530;47.990;7.866;2022-12-11T10:19:44;12.88;;;10.20;;
5022;SDS011;2530;47.990;7.866;2022-12-11T10:22:18;12.60;;;9.90;;
5022;SDS011;2530;47.990;7.866;2022-12-11T10:24:57;15.02;;;10.05;;
5022;SDS011;2530;47.990;7.866;2022-12-11T10:27:29;11.33;;;9.60;;
5022;SDS011;2530;47.990;7.866;2022-12-11T10:30:18;12.60;;;9.60;;
5022;SDS011;2530;47.990;7.866;2022-12-11T10:35:47;9.60;;;8.40;;
5022;SDS011;2530;47.990;7.866;2022-12-11T10:38:21;10.93;;;8.90;;
5022;SDS011;2530;47.990;7.866;2022-12-11T10:40:55;11.93;;;8.48;;
5022;SDS011;2530;47.990;7.866;2022-12-11T10:43:36;9.80;;;7.70;;
5022;SDS011;2530;47.990;7.866;2022-12-11T10:46:12;10.68;;;8.30;;
5022;SDS011;2530;47.990;7.866;2022-12-11T10:51:17;12.07;;;10.02;;
5022;SDS011;2530;47.990;7.866;2022-12-11T10:53:48;10.52;;;9.18;;
5022;SDS011;2530;47.990;7.866;2022-12-11T10:56:23;13.13;;;10.68;;
5022;SDS011;2530;47.990;7.866;2022-12-11T10:58:53;13.40;;;10.97;;
5022;SDS011;2530;47.990;7.866;2022-12-11T11:01:22;11.40;;;8.88;;
5022;SDS011;2530;47.990;7.866;2022-12-11T11:06:30;12.82;;;10.55;;
5022;SDS011;2530;47.990;7.866;2022-12-11T11:08:57;12.63;;;10.40;;
5022;SDS011;2530;47.990;7.866;2022-12-11T11:14:11;11.75;;;9.25;;
5022;SDS011;2530;47.990;7.866;2022-12-11T11:16:39;12.93;;;9.35;;
5022;SDS011;2530;47.990;7.866;2022-12-11T11:19:13;12.18;;;9.00;;
5022;SDS011;2530;47.990;7.866;2022-12-11T11:22:03;9.80;;;8.02;;
5022;SDS011;2530;47.990;7.866;2022-12-11T11:24:42;10.53;;;9.23;;
5022;SDS011;2530;47.990;7.866;2022-12-11T11:30:00;15.27;;;12.02;;
5022;SDS011;2530;47.990;7.866;2022-12-11T11:32:40;15.35;;;12.30;;
5022;SDS011;2530;47.990;7.866;2022-12-11T11:37:39;15.13;;;12.30;;
5022;SDS011;2530;47.990;7.866;2022-12-11T11:40:28;18.00;;;13.52;;
5022;SDS011;2530;47.990;7.866;2022-12-11T11:43:45;14.05;;;12.55;;
5022;SDS011;2530;47.990;7.866;2022-12-11T11:46:01;16.45;;;13.45;;
5022;SDS011;2530;47.990;7.866;2022-12-11T11:51:39;18.02;;;14.02;;
5022;SDS011;2530;47.990;7.866;2022-12-11T11:56:49;17.13;;;13.73;;
5022;SDS011;2530;47.990;7.866;2022-12-11T11:59:22;18.73;;;14.35;;
5022;SDS011;2530;47.990;7.866;2022-12-11T12:01:55;16.48;;;13.80;;
5022;SDS011;2530;47.990;7.866;2022-12-11T12:04:21;18.70;;;14.68;;
5022;SDS011;2530;47.990;7.866;2022-12-11T12:09:43;19.65;;;14.32;;
5022;SDS011;2530;47.990;7.866;2022-12-11T12:12:48;17.87;;;14.23;;
5022;SDS011;2530;47.990;7.866;2022-12-11T12:20:50;20.53;;;14.57;;
5022;SDS011;2530;47.990;7.866;2022-12-11T12:26:10;18.83;;;14.55;;
5022;SDS011;2530;47.990;7.866;2022-12-11T12:34:49;18.60;;;13.85;;
5022;SDS011;2530;47.990;7.866;2022-12-11T12:45:33;20.83;;;14.80;;
5022;SDS011;2530;47.990;7.866;2022-12-11T12:48:10;21.40;;;14.47;;
5022;SDS011;2530;47.990;7.866;2022-12-11T12:50:37;20.50;;;14.70;;
5022;SDS011;2530;47.990;7.866;2022-12-11T12:53:06;20.00;;;15.10;;
5022;SDS011;2530;47.990;7.866;2022-12-11T12:55:36;18.85;;;14.80;;
5022;SDS011;2530;47.990;7.866;2022-12-11T12:58:04;23.63;;;16.00;;
5022;SDS011;2530;47.990;7.866;2022-12-11T13:03:11;21.17;;;15.40;;
5022;SDS011;2530;47.990;7.866;2022-12-11T13:05:43;19.73;;;14.40;;
5022;SDS011;2530;47.990;7.866;2022-12-11T13:08:23;23.15;;;15.88;;
5022;SDS011;2530;47.990;7.866;2022-12-11T13:10:57;21.20;;;15.60;;
5022;SDS011;2530;47.990;7.866;2022-12-11T13:13:45;17.70;;;14.57;;
5022;SDS011;2530;47.990;7.866;2022-12-11T13:18:39;18.63;;;14.38;;
5022;SDS011;2530;47.990;7.866;2022-12-11T13:21:26;17.93;;;14.50;;
5022;SDS011;2530;47.990;7.866;2022-12-11T13:24:15;24.10;;;17.73;;
5022;SDS011;2530;47.990;7.866;2022-12-11T13:26:49;21.48;;;15.48;;
5022;SDS011;2530;47.990;7.866;2022-12-11T13:29:32;21.75;;;16.42;;
5022;SDS011;2530;47.990;7.866;2022-12-11T13:34:40;18.48;;;14.07;;
5022;SDS011;2530;47.990;7.866;2022-12-11T13:40:23;22.08;;;15.93;;
5022;SDS011;2530;47.990;7.866;2022-12-11T13:42:49;21.50;;;16.50;;
5022;SDS011;2530;47.990;7.866;2022-12-11T13:45:22;22.13;;;16.48;;
5022;SDS011;2530;47.990;7.866;2022-12-11T13:47:55;21.70;;;15.30;;
5022;SDS011;2530;47.990;7.866;2022-12-11T13:50:23;21.48;;;15.70;;
5022;SDS011;2530;47.990;7.866;2022-12-11T13:52:52;20.40;;;16.20;;
5022;SDS011;2530;47.990;7.866;2022-12-11T13:55:23;21.95;;;15.85;;
5022;SDS011;2530;47.990;7.866;2022-12-11T13:57:51;19.27;;;15.07;;
5022;SDS011;2530;47.990;7.866;2022-12-11T14:00:21;21.85;;;16.20;;
5022;SDS011;2530;47.990;7.866;2022-12-11T14:02:52;19.88;;;15.88;;
5022;SDS011;2530;47.990;7.866;2022-12-11T14:05:20;21.75;;;16.35;;
5022;SDS011;2530;47.990;7.866;2022-12-11T14:07:48;22.15;;;16.13;;
5022;SDS011;2530;47.990;7.866;2022-12-11T14:10:22;20.73;;;16.10;;
5022;SDS011;2530;47.990;7.866;2022-12-11T14:12:52;21.48;;;15.55;;
5022;SDS011;2530;47.990;7.866;2022-12-11T14:15:19;19.87;;;15.17;;
5022;SDS011;2530;47.990;7.866;2022-12-11T14:17:45;20.83;;;16.08;;
5022;SDS011;2530;47.990;7.866;2022-12-11T14:20:24;20.40;;;14.57;;
5022;SDS011;2530;47.990;7.866;2022-12-11T14:23:05;19.48;;;14.75;;
5022;SDS011;2530;47.990;7.866;2022-12-11T14:25:37;19.60;;;14.75;;
5022;SDS011;2530;47.990;7.866;2022-12-11T14:28:02;19.13;;;15.65;;
5022;SDS011;2530;47.990;7.866;2022-12-11T14:30:29;20.85;;;15.10;;
5022;SDS011;2530;47.990;7.866;2022-12-11T14:32:57;17.48;;;13.32;;
5022;SDS011;2530;47.990;7.866;2022-12-11T14:35:27;19.20;;;14.20;;
5022;SDS011;2530;47.990;7.866;2022-12-11T14:37:55;20.33;;;15.13;;
5022;SDS011;2530;47.990;7.866;2022-12-11T14:40:23;18.42;;;14.05;;
5022;SDS011;2530;47.990;7.866;2022-12-11T14:43:00;18.70;;;14.27;;
5022;SDS011;2530;47.990;7.866;2022-12-11T14:45:32;18.85;;;13.45;;
5022;SDS011;2530;47.990;7.866;2022-12-11T14:48:00;22.52;;;14.23;;
5022;SDS011;2530;47.990;7.866;2022-12-11T14:50:36;19.45;;;14.80;;
5022;SDS011;2530;47.990;7.866;2022-12-11T14:53:18;20.38;;;15.20;;
5022;SDS011;2530;47.990;7.866;2022-12-11T14:55:47;23.40;;;15.73;;
5022;SDS011;2530;47.990;7.866;2022-12-11T14:58:16;19.85;;;15.50;;
5022;SDS011;2530;47.990;7.866;2022-12-11T15:01:01;21.35;;;15.70;;
5022;SDS011;2530;47.990;7.866;2022-12-11T15:03:33;20.42;;;15.20;;
5022;SDS011;2530;47.990;7.866;2022-12-11T15:06:00;20.88;;;15.70;;
5022;SDS011;2530;47.990;7.866;2022-12-11T15:08:31;21.05;;;16.02;;
5022;SDS011;2530;47.990;7.866;2022-12-11T15:11:03;23.10;;;17.05;;
5022;SDS011;2530;47.990;7.866;2022-12-11T15:13:34;21.00;;;16.50;;
5022;SDS011;2530;47.990;7.866;2022-12-11T15:16:03;22.53;;;17.23;;
5022;SDS011;2530;47.990;7.866;2022-12-11T15:18:38;22.70;;;16.80;;
5022;SDS011;2530;47.990;7.866;2022-12-11T15:21:06;22.55;;;16.10;;
5022;SDS011;2530;47.990;7.866;2022-12-11T15:23:51;21.42;;;15.90;;
5022;SDS011;2530;47.990;7.866;2022-12-11T15:26:43;24.08;;;17.08;;
5022;SDS011;2530;47.990;7.866;2022-12-11T15:34:41;30.40;;;21.15;;
5022;SDS011;2530;47.990;7.866;2022-12-11T15:37:50;28.00;;;20.20;;
5022;SDS011;2530;47.990;7.866;2022-12-11T15:40:02;27.92;;;20.63;;
5022;SDS011;2530;47.990;7.866;2022-12-11T15:44:56;26.90;;;19.92;;
5022;SDS011;2530;47.990;7.866;2022-12-11T15:47:24;27.63;;;20.23;;
5022;SDS011;2530;47.990;7.866;2022-12-11T15:49:56;27.13;;;19.80;;
5022;SDS011;2530;47.990;7.866;2022-12-11T15:52:23;27.75;;;20.00;;
5022;SDS011;2530;47.990;7.866;2022-12-11T15:54:49;28.17;;;19.15;;
5022;SDS011;2530;47.990;7.866;2022-12-11T15:57:16;28.08;;;19.58;;
5022;SDS011;2530;47.990;7.866;2022-12-11T15:59:45;27.90;;;19.60;;
5022;SDS011;2530;47.990;7.866;2022-12-11T16:02:12;30.33;;;20.27;;
5022;SDS011;2530;47.990;7.866;2022-12-11T16:04:39;28.77;;;20.98;;
5022;SDS011;2530;47.990;7.866;2022-12-11T16:07:18;28.58;;;20.55;;
5022;SDS011;2530;47.990;7.866;2022-12-11T16:09:45;27.63;;;20.10;;
5022;SDS011;2530;47.990;7.866;2022-12-11T16:12:11;30.23;;;20.45;;
5022;SDS011;2530;47.990;7.866;2022-12-11T16:14:38;28.90;;;21.45;;
5022;SDS011;2530;47.990;7.866;2022-12-11T16:17:05;29.05;;;21.13;;
5022;SDS011;2530;47.990;7.866;2022-12-11T16:19:32;28.85;;;20.40;;
5022;SDS011;2530;47.990;7.866;2022-12-11T16:21:58;27.67;;;19.83;;
5022;SDS011;2530;47.990;7.866;2022-12-11T16:24:24;28.60;;;19.90;;
5022;SDS011;2530;47.990;7.866;2022-12-11T16:26:50;29.40;;;22.02;;
5022;SDS011;2530;47.990;7.866;2022-12-11T16:29:15;32.80;;;21.95;;
5022;SDS011;2530;47.990;7.866;2022-12-11T16:31:42;26.95;;;20.52;;
5022;SDS011;2530;47.990;7.866;2022-12-11T16:34:07;27.55;;;19.88;;
5022;SDS011;2530;47.990;7.866;2022-12-11T16:36:33;30.87;;;22.10;;
5022;SDS011;2530;47.990;7.866;2022-12-11T16:38:59;29.47;;;21.73;;
5022;SDS011;2530;47.990;7.866;2022-12-11T16:41:25;32.35;;;23.52;;
5022;SDS011;2530;47.990;7.866;2022-12-11T16:43:50;32.90;;;23.33;;
5022;SDS011;2530;47.990;7.866;2022-12-11T16:46:21;35.53;;;24.05;;
5022;SDS011;2530;47.990;7.866;2022-12-11T16:48:48;33.35;;;22.60;;
5022;SDS011;2530;47.990;7.866;2022-12-11T16:51:14;28.83;;;22.00;;